Cannon Beach, OR (97110)

11:13 AM PDT en Mayo 29, 2015 (GMT -0700)
Cannon Beach | | Change Station
CLOSE
Current Station
Estación meteorológica personal
Location: Cannon Beach, OR
Altura: 36 ft
Estaciones meteorológicas cercanas

Alt 36 ft 45.90 °N, 123.96 °W | Updated 15 seconds ago

Nublado
Nublado
55.4 ° F
Sensación térmica 55.4 ° F
N
0.0
Viento Variable Viento desde NNE
Gusts 0.0 mph

Hoy
Alta -- | Baja -- ° F
--% Posibilidad de precipitaciones
Ayer
Alta -- | Baja -- ° F
Precip. -- pul
5:31 AM 8:55 PM
Gibosa creciente, 85% visible
Presión 30.05 pul
Visibilidad 3.0 Millas
Nubes Nublado 600 ft
Punto de rocío 52 ° F
Humedad 90%
Precipitaciones 0.00 pul
Espesor de la nieve No disponible.
UV 1.0 de una escala de 12
Polen 7.10 de una escala de 12
Calidad del aire No disponible.
Flu Activity No Activity
METAR KAST 291755Z AUTO 26006KT 3SM BR OVC006 13/11 A3005 RMK AO2 SLP175 T01280111 10133 20111 51005

More Conditions Fewer Conditions

Presión 30.05 pul
Visibilidad 3.0 Millas
Nubes Nublado 600 ft
Punto de rocío 52 ° F
Humedad 90%
Precipitaciones 0.00 pul
Espesor de la nieve No disponible.
UV 1.0 de una escala de 12
Polen 7.10 de una escala de 12
Calidad del aire No disponible.
Flu Activity No Activity
METAR KAST 291755Z AUTO 26006KT 3SM BR OVC006 13/11 A3005 RMK AO2 SLP175 T01280111 10133 20111 51005

More Conditions Fewer Conditions

10-Day Weather Forecast

Almanac

Astronomía

May. 29, 2015 Salida Puesta
Hora real
Crepúsculo civil
Crepúsculo náutico
Crepúsculo astronómico
Luna
Horas de luz
Horas de luz
Tomorrow will be .
, % of the Moon is Illuminated

Extremos de hoy

Máximos del estado Bajos del estado

Community

WunderPhotos

Upload Photos

1,825,314 ¡fotos cargadas!

WunderBlogs® & News

Nearby

Calidad del aire

  Calidad del aire Índice AQ Contaminante
Not available.

Grosos de nieve

Estación Profundido Altura

Actividad de terremotos

Ciudad Distance Mag. Tiempo y dato
Magnitud mínima muestra es 2,5.

Temperaturas de aguas costeras

Lugar Temperatura

Stations

Estaciones meteorológicas cercanas

Ubicación de la estación Temp. Vientos helados Punto de rocío Humedad Viento Precip. Alt Actualizado Tipo